neil on the web!

ADDS Results

1924 UTC 14 December 2018

EGJB 141850Z 15014KT 9999 FEW021 SCT038 04/M01 Q1020
EGJB 141820Z 15015KT 9999 FEW021 BKN045 04/M01 Q1020
EGJB 141750Z 14014KT 9999 FEW021 BKN048 04/M01 Q1020
TAF EGJB 141704Z 1418/1503 15013KT 9999 FEW020 BKN035
PROB40
TEMPO 1501/1503 15019G29KT 8000 -RA BKN015
EGJJ 141850Z 15011KT 9999 FEW018 SCT046 03/M01 Q1021
EGJJ 141820Z 14014KT 9999 FEW018 03/M01 Q1020
EGJJ 141750Z 15012KT 9999 FEW020 03/M01 Q1021
TAF EGJJ 141704Z 1418/1503 14012KT 9999 FEW018 BKN035
PROB30
TEMPO 1502/1503 15018G28KT 8000 -RA BKN015
EGKK 141850Z 08003KT 9999 BKN043 00/M01 Q1023
EGKK 141820Z 13004KT 110V180 9999 BKN044 01/M01 Q1023
EGKK 141750Z 11002KT 9000 BKN042 M00/M02 Q1023
TAF EGKK 141654Z 1418/1524 08003KT 9999 SCT040
TEMPO 1418/1509 8000
BECMG 1506/1509 14012KT
PROB30
TEMPO 1512/1521 14018G28KT
BECMG 1513/1516 -RA BKN010
TEMPO 1515/1521 6000 RA BKN007
PROB30
TEMPO 1516/1521 3000 +RA BKN004
BECMG 1520/1522 25010KT NSW FEW020
PROB30
TEMPO 1521/1524 8000
EGSS 141850Z AUTO VRB03KT 9999 FEW029 OVC034 02/M00 Q1023
EGSS 141820Z AUTO 07004KT 010V110 9999 FEW028 SCT032 OVC039 02/M00 Q1023
EGSS 141750Z AUTO VRB04KT 9999 SCT031 OVC041 02/M00 Q1023
TAF EGSS 141657Z 1418/1524 09005KT 9999 SCT030
PROB30 1418/1503 2000 BR BKN003
BECMG 1500/1503 15014KT
TEMPO 1508/1520 15017G27KT
BECMG 1515/1517 -RA BKN014
TEMPO 1515/1522 6000 RADZ BKN008
PROB30
TEMPO 1516/1518 4000 FZRA
PROB30
TEMPO 1518/1521 3000 +RA BKN004
EGGW 141850Z AUTO VRB02KT 9999 OVC046 01/M01 Q1023
EGGW 141820Z AUTO 12003KT 9999 OVC041 01/M01 Q1022
EGGW 141750Z AUTO 11004KT 9999 OVC041 02/M01 Q1022
TAF EGGW 141657Z 1418/1518 08005KT 9999 SCT030
PROB30 1418/1503 2000 BR BKN002
BECMG 1500/1503 14014KT
TEMPO 1508/1518 14017G27KT
BECMG 1515/1517 -RA BKN014
TEMPO 1515/1518 6000 RADZ BKN008
PROB30
TEMPO 1515/1518 4000 FZRA
EGSH 141850Z 10004KT 9999 FEW039 SCT046 02/01 Q1024 NOSIG
EGSH 141820Z 10003KT 9999 FEW041 SCT046 03/01 Q1024 NOSIG
EGSH 141750Z 07003KT 9999 SCT031 03/02 Q1024 NOSIG
TAF EGSH 141700Z 1418/1424 10005KT 9999 SCT025
PROB30
TEMPO 1418/1424 6000 -SHRASN BKN008
EGLC 141850Z AUTO 17004KT 110V210 9999 BKN029 BKN035 OVC041 04/M02 Q1024
EGLC 141820Z AUTO 14004KT 9999 SCT030 OVC040 04/M02 Q1023
EGLC 141750Z AUTO 14004KT 100V200 9999 SCT030 OVC044 04/M02 Q1024
TAF EGLC 141653Z 1418/1421 12004KT 9999 BKN035
EGMC 141850Z 15005KT 9999 FEW027 BKN038 02/M04 Q1023
EGMC 141820Z 17006KT 9999 FEW027 SCT032 03/M02 Q1023
EGMC 141750Z 19005KT 9999 FEW021 BKN025 03/M01 Q1024
TAF EGMC 141653Z 1418/1503 16007KT 9999 BKN030
EGLL 141850Z AUTO 12004KT 9999 OVC045 03/M02 Q1024
EGLL 141820Z AUTO 11005KT 9999 OVC045 03/M02 Q1023
EGLL 141750Z AUTO 14005KT 9999 BKN046 03/M02 Q1023 NOSIG
TAF EGLL 141706Z 1418/1524 12004KT 9999 SCT035
TEMPO 1418/1507 8000
BECMG 1504/1507 12014KT
TEMPO 1513/1519 14018G28KT 7000 RA BKN012
PROB40
TEMPO 1515/1519 3500 +RA BKN008
TEMPO 1519/1522 3000 -RADZ BKN005
BECMG 1520/1522 22008KT
EGHI 141850Z 10004KT 050V130 9999 BKN040 02/M03 Q1023
EGHI 141820Z VRB03KT 9999 BKN043 02/M02 Q1023
EGHI 141750Z 09005KT 9999 BKN043 02/M02 Q1022
TAF EGHI 141700Z 1418/1423 08006KT 9999 SCT035
PROB30 1418/1423 9000
EGHH 141850Z 12008KT 9999 BKN035 05/M01 Q1021
EGHH 141820Z 11010KT 9999 BKN035 05/M01 Q1021
EGHH 141750Z 10008KT 010V120 9999 OVC033 04/M01 Q1021
TAF EGHH 141700Z 1418/1503 11008KT 9999 SCT035
PROB40 1418/1503 9000
EGCC 141850Z AUTO 12005KT 080V250 9999 NCD 01/M03 Q1021 NOSIG
EGCC 141820Z AUTO 12006KT 070V170 9999 NCD 01/M03 Q1021 NOSIG
EGCC 141750Z AUTO 11004KT 060V170 9999 NCD 01/M03 Q1022 NOSIG
TAF EGCC 141706Z 1418/1524 13007KT 9999 SCT030
TEMPO 1418/1518 15015G25KT
PROB30
TEMPO 1505/1518 15020G35KT
TEMPO 1509/1520 6000 RA
PROB30
TEMPO 1509/1518 4000 FZRA BKN010
BECMG 1519/1522 20015KT
TEMPO 1521/1524 21018G28KT
EGNX 141850Z 11008KT 9999 BKN041 00/M01 Q1022
EGNX 141820Z 13005KT 9999 BKN045 01/M01 Q1023
EGNX 141750Z 15005KT 9999 BKN049 01/M01 Q1023
TAF EGNX 141659Z 1418/1518 13004KT 9999 FEW040
TEMPO 1418/1503 7000
PROB30 1421/1502 2000 BR BKN003
BECMG 1504/1507 13014KT
TEMPO 1509/1518 13018G28KT
TEMPO 1513/1518 6000 RA
BECMG 1515/1518 SCT008 BKN012
PROB30
TEMPO 1515/1518 3000 +RA FZRA BKN008
EGGP 141850Z 12013KT CAVOK 01/M02 Q1020
EGGP 141820Z 12012KT CAVOK 02/M02 Q1020
EGGP 141750Z 12012KT CAVOK 02/M02 Q1020
TAF EGGP 141706Z 1418/1518 14012KT 9999 SCT030
TEMPO 1418/1512 15015G25KT
PROB30
TEMPO 1504/1512 15020G35KT
TEMPO 1506/1512 6000 RA
PROB30
TEMPO 1506/1517 4000 FZRA BKN014
EGNM 141850Z 13006KT CAVOK M02/M02 Q1021
EGNM 141820Z 15006KT CAVOK M01/M03 Q1021
EGNM 141750Z 15006KT CAVOK M01/M02 Q1021
TAF EGNM 141657Z 1418/1518 13005KT 9999 FEW030
TEMPO 1418/1518 BKN008
PROB40
TEMPO 1421/1506 3000 BR BKN003
BECMG 1509/1512 13015G25KT
TEMPO 1512/1518 4000 FZRA BKN012
PROB30
TEMPO 1515/1518 1400 +RADZ BKN006
EGBB 141850Z 15006KT 090V160 8000 NSC M01/M03 Q1022
EGBB 141820Z 12007KT 8000 NSC M01/M02 Q1022
EGBB 141750Z 14006KT 8000 NSC M01/M03 Q1023
TAF COR EGBB 141920Z 1419/1518 13004KT 8000 FEW040
PROB30 1419/1420 9999
PROB30 1420/1502 2000 BR BKN004
BECMG 1502/1505 9999
BECMG 1505/1508 13014KT
PROB40
TEMPO 1511/1518 13017G27KT 6000 RA
BECMG 1513/1516 SCT007 BKN011
PROB30
TEMPO 1514/1518 3000 +RA FZRA BKN007
EGGD 141850Z AUTO 11010KT 9999 BKN024 OVC030 01/M00 Q1020
EGGD 141820Z AUTO 11010KT 9999 SCT024 OVC030 01/M00 Q1020
EGGD 141750Z AUTO 11010KT 9999 FEW024 BKN032 01/M00 Q1020
TAF EGGD 141657Z 1418/1518 09009KT 9999 SCT035
BECMG 1503/1506 12015G25KT
TEMPO 1503/1509 8000 -RA BKN014
BECMG 1509/1512 8000 -RA BKN014
TEMPO 1509/1518 13025G35KT 4000 RA BKN009
PROB30
TEMPO 1511/1518 1400 +RADZ BKN004
EGFF 141850Z AUTO 13017KT 9999 NCD 04/01 Q1020
EGFF 141820Z AUTO 12017KT 9999 FEW028 04/01 Q1020
EGFF 141750Z AUTO 12016KT 9999 SCT026 03/00 Q1020
TAF EGFF 141659Z 1418/1518 12016KT 9999 SCT025
TEMPO 1503/1517 11022G32KT 6000 RA
BECMG 1505/1508 SCT006 BKN010
PROB40
TEMPO 1509/1516 3000 +RA BKN008
BECMG 1515/1518 18009KT SCT025
EGTE 141850Z 15011KT 130V190 9999 FEW030 05/00 Q1020
EGTE 141820Z 14012KT 9999 FEW030 05/M00 Q1020
EGTE 141750Z 15011KT 9999 FEW045 05/M00 Q1020
TAF EGTE 141700Z 1418/1503 15012KT 9999 SCT035
PROB30
TEMPO 1423/1503 15016G26KT 6000 RA
BECMG 1500/1503 BKN008
EGPF 141850Z AUTO 06008KT 9999 NCD 01/M03 Q1017
EGPF 141820Z AUTO 07008KT 9999 SCT033 01/M03 Q1018
EGPF 141750Z 07009KT 9999 FEW033 01/M03 Q1018
TAF EGPF 141655Z 1418/1518 10009KT 9999 SCT020
PROB40
TEMPO 1503/1518 6000 -RASN
PROB40
TEMPO 1506/1518 11015G28KT
PROB30
TEMPO 1512/1518 4000 FZRA
EGPH 141850Z 11006KT 050V140 CAVOK 02/M03 Q1018
EGPH 141820Z 11012KT CAVOK 01/M03 Q1019
EGPH 141750Z 11011KT CAVOK 01/M03 Q1019
TAF EGPH 141655Z 1418/1518 12008KT 9999 FEW030
PROB40
TEMPO 1513/1518 13015G30KT 6000 -RASN
PROB30
TEMPO 1514/1518 4000 FZRA
EGPK 141850Z 15019G29KT 9999 FEW028 04/M02 Q1016
EGPK 141820Z 15019KT 9999 FEW025 04/M01 Q1016
EGPK 141750Z 14014KT 9999 FEW025 03/M01 Q1017
TAF AMD EGPK 141855Z 1418/1518 13010KT 9999 SCT025
TEMPO 1418/1510 14015G28KT
PROB40
TEMPO 1506/1518 6000 -RASN
PROB30
TEMPO 1509/1518 4000 FZRA
BECMG 1510/1513 14020KT
TEMPO 1510/1518 15023G40KT
EHAM 141855Z 08005KT 9999 SCT028 BKN040 01/M01 Q1026 NOSIG
EHAM 141825Z 07005KT 9999 FEW015 BKN042 01/M01 Q1025 NOSIG
EHAM 141755Z 07005KT 9999 FEW015 BKN044 M00/M02 Q1025 NOSIG
EHAM 141725Z 08006KT 9999 FEW045 M01/M03 Q1025 NOSIG
TAF EHAM 141703Z 1418/1524 08007KT 9999 BKN040
BECMG 1422/1501 11007KT CAVOK
PROB30 1503/1508 6000
BECMG 1509/1512 13013KT
BECMG 1517/1520 13020KT
BECMG 1521/1524 4000 -SNRA BKN010
LFLS 141900Z AUTO VRB03KT 9000 BKN016 OVC038 M01/M04 Q1021 TEMPO BKN014
LFLS 141830Z AUTO 35006KT 310V020 9000 BKN014 OVC036 M00/M04 Q1020 NOSIG
LFLS 141800Z AUTO 34005KT 290V030 8000 BKN014 OVC030 M00/M03 Q1020 NOSIG
LFLS 141730Z AUTO VRB04KT 9000 BKN011 OVC016 M00/M03 Q1020 NOSIG
TAF LFLS 141400Z 1415/1515 34004KT 9999 BKN030
PROB40
TEMPO 1415/1506 BKN014
PROB30
TEMPO 1504/1509 0600 FZFG VV///
LFLL 141900Z 34010KT 9999 BKN014 OVC024 M00/M03 Q1022 NOSIG
LFLL 141830Z 35010KT 9000 OVC014 M00/M03 Q1022 NOSIG
LFLL 141800Z 36008KT 9000 OVC015 M00/M03 Q1021 NOSIG
LFLL 141730Z 36009KT 8000 OVC015 M00/M03 Q1021 NOSIG
TAF LFLL 141700Z 1418/1524 34012KT 9999 OVC014
BECMG 1423/1501 VRB02KT
BECMG 1502/1504 2000 BR OVC008
PROB40
TEMPO 1504/1508 0300 FZFG VV///
BECMG 1512/1514 9999 NSW SCT016
BECMG 1514/1516 NSC
BECMG 1518/1520 17012KT -RA
TEMPO 1521/1524 4500 RA BKN014
LFLC 141900Z AUTO 04006KT 9999 OVC016 M01/M04 Q1021 TEMPO 3000 BR OVC004
LFLC 141830Z AUTO 06006KT 9999 OVC016 M01/M03 Q1021 BECMG 3000 BR OVC004
LFLC 141800Z AUTO 05005KT 9999 OVC016 M01/M04 Q1021 BECMG 3000 BR OVC004
LFLC 141730Z AUTO 03005KT 360V070 9000 OVC015 M01/M04 Q1021 BECMG 3000 BR OVC004
TAF AMD LFLC 141833Z 1418/1515 36004KT 6000 OVC016
TEMPO 1419/1509 3000 BR OVC004
PROB40
TEMPO 1500/1506 0400 FZFG VV///
BECMG 1509/1512 SCT020 OVC100
LFRD 141900Z AUTO 15008KT 9000 NSC 02/M02 Q1021 BECMG BKN015
LFRD 141830Z AUTO 16008KT 9000 BKN047 OVC054 02/M02 Q1021 NOSIG
LFRD 141800Z AUTO 15008KT 120V180 9000 BKN042 BKN058 OVC068 02/M02 Q1021 NOSIG
LFRD 141730Z AUTO 16007KT 9000 BKN041 OVC060 02/M02 Q1022 NOSIG
TAF LFRD 141700Z 1418/1518 16006KT 9000 BKN025
BECMG 1418/1420 16012KT BKN015
BECMG 1501/1504 4000 RA BKN008
PROB30
TEMPO 1502/1505 FZRA
BECMG 1503/1506 15018G30KT
TEMPO 1506/1518 2500 RA BKN003
BECMG 1515/1518 22016G28KT
LFRC 141900Z AUTO 14008KT 8000 NSC M01/M05 Q1021
LFRC 141830Z AUTO 14007KT 9000 NSC M01/M05 Q1021 NOSIG
LFRC 141800Z AUTO 14006KT 9000 NSC M01/M06 Q1021 NOSIG
LFRC 141730Z AUTO 13005KT 9000 NSC M01/M05 Q1022 NOSIG
TAF LFRC 141400Z 1415/1424 15010KT 9999 FEW025
VHHH 141900Z 05007KT 9999 SCT023 17/11 Q1024 NOSIG
VHHH 141830Z 07005KT 9999 SCT023 17/11 Q1024 NOSIG
VHHH 141800Z 05006KT 9999 SCT025 17/11 Q1025 NOSIG
VHHH 141730Z 04009KT 9999 FEW025 17/10 Q1025 NOSIG
TAF VHHH 141700Z 1418/1524 03010KT 9999 FEW025 TX19/1506Z TN15/1423Z TN16/1523Z
TEMPO 1503/1510 33010KT
TEMPO 1510/1518 VRB05KT